createdAt,value
2022-08-31T00:01:52.611Z,10.60
2022-08-31T00:04:45.560Z,10.45
2022-08-31T00:07:38.477Z,10.57
2022-08-31T00:10:36.968Z,11.30
2022-08-31T00:13:30.873Z,9.93
2022-08-31T00:16:24.002Z,11.53
2022-08-31T00:19:16.968Z,9.67
2022-08-31T00:22:09.377Z,10.80
2022-08-31T00:25:01.256Z,10.87
2022-08-31T00:27:55.867Z,9.17
2022-08-31T00:30:47.778Z,13.40
2022-08-31T00:33:41.075Z,11.77
2022-08-31T00:36:33.743Z,10.50
2022-08-31T00:39:25.679Z,9.37
2022-08-31T00:42:18.495Z,10.63
2022-08-31T00:45:12.336Z,10.43
2022-08-31T00:48:04.874Z,11.77
2022-08-31T00:50:57.223Z,10.83
2022-08-31T00:53:51.382Z,12.53
2022-08-31T00:56:45.311Z,13.53
2022-08-31T00:59:38.480Z,12.20
2022-08-31T01:02:30.419Z,15.13
2022-08-31T01:05:23.888Z,13.47
2022-08-31T01:08:16.570Z,13.73
2022-08-31T01:11:10.449Z,11.03
2022-08-31T01:14:03.781Z,10.80
2022-08-31T01:16:57.825Z,13.60
2022-08-31T01:19:58.758Z,12.33
2022-08-31T01:23:00.809Z,11.90
2022-08-31T01:25:56.195Z,11.67
2022-08-31T01:28:48.448Z,11.23
2022-08-31T01:31:42.560Z,12.00
2022-08-31T01:34:35.687Z,10.97
2022-08-31T01:37:29.469Z,16.83
2022-08-31T01:40:23.114Z,13.80
2022-08-31T01:43:15.443Z,13.53
2022-08-31T01:46:09.726Z,11.77
2022-08-31T01:49:03.366Z,13.20
2022-08-31T01:51:56.913Z,15.47
2022-08-31T01:54:49.704Z,14.03
2022-08-31T01:57:42.108Z,12.13
2022-08-31T02:03:44.562Z,13.47
2022-08-31T02:06:37.692Z,14.70
2022-08-31T02:09:31.180Z,15.40
2022-08-31T02:12:23.715Z,11.80
2022-08-31T02:15:16.427Z,11.20
2022-08-31T02:18:09.105Z,11.40
2022-08-31T02:21:04.675Z,13.67
2022-08-31T02:23:57.868Z,16.00
2022-08-31T02:26:53.709Z,40.43
2022-08-31T02:29:46.418Z,43.83
2022-08-31T02:32:43.300Z,53.43
2022-08-31T02:35:36.474Z,40.37
2022-08-31T02:38:29.571Z,22.10
2022-08-31T02:41:21.453Z,16.63
2022-08-31T02:44:13.819Z,12.03
2022-08-31T02:47:05.699Z,12.53
2022-08-31T02:50:30.190Z,13.83
2022-08-31T02:53:24.833Z,14.03
2022-08-31T02:56:17.526Z,13.43
2022-08-31T02:59:09.473Z,11.13
2022-08-31T03:02:02.021Z,13.77
2022-08-31T03:04:54.517Z,13.27
2022-08-31T03:10:38.525Z,20.75
2022-08-31T03:13:30.862Z,19.10
2022-08-31T03:16:23.354Z,15.80
2022-08-31T03:19:16.080Z,14.40
2022-08-31T03:22:10.889Z,15.20
2022-08-31T03:25:03.762Z,15.30
2022-08-31T03:27:56.168Z,12.00
2022-08-31T03:30:49.166Z,13.07
2022-08-31T03:33:41.890Z,12.23
2022-08-31T03:36:34.906Z,14.77
2022-08-31T03:39:28.165Z,11.73
2022-08-31T03:42:21.567Z,14.90
2022-08-31T03:45:14.545Z,12.13
2022-08-31T03:48:12.025Z,13.77
2022-08-31T03:51:05.828Z,14.30
2022-08-31T03:53:59.386Z,17.23
2022-08-31T03:56:51.861Z,16.63
2022-08-31T03:59:45.703Z,12.47
2022-08-31T04:05:55.642Z,13.03
2022-08-31T04:09:10.781Z,14.23
2022-08-31T04:15:32.597Z,18.17
2022-08-31T04:18:24.933Z,12.70
2022-08-31T04:21:21.616Z,12.93
2022-08-31T04:24:15.698Z,16.17
2022-08-31T04:27:08.625Z,12.10
2022-08-31T04:30:02.336Z,13.17
2022-08-31T04:32:57.418Z,12.37
2022-08-31T04:35:49.619Z,12.03
2022-08-31T04:38:43.686Z,11.90
2022-08-31T04:41:39.860Z,11.03
2022-08-31T04:44:33.335Z,16.33
2022-08-31T04:47:26.759Z,16.63
2022-08-31T04:50:19.330Z,15.67
2022-08-31T04:53:32.221Z,13.77
2022-08-31T04:56:27.318Z,12.15
2022-08-31T04:59:26.432Z,12.93
2022-08-31T05:02:48.903Z,12.57
2022-08-31T05:05:46.997Z,14.43
2022-08-31T05:08:39.118Z,13.83
2022-08-31T05:11:31.278Z,13.67
2022-08-31T05:14:24.372Z,11.30
2022-08-31T05:17:24.451Z,12.53
2022-08-31T05:23:06.715Z,15.23
2022-08-31T05:25:59.568Z,14.80
2022-08-31T05:28:52.128Z,14.73
2022-08-31T05:31:49.083Z,16.37
2022-08-31T05:34:44.001Z,12.97
2022-08-31T05:37:36.535Z,14.17
2022-08-31T05:40:29.216Z,14.90
2022-08-31T05:43:21.693Z,13.60
2022-08-31T05:46:16.499Z,15.77
2022-08-31T05:49:10.882Z,16.17
2022-08-31T05:52:05.393Z,14.35
2022-08-31T05:54:57.810Z,17.57
2022-08-31T05:57:49.667Z,14.57
2022-08-31T06:00:42.773Z,14.40
2022-08-31T06:03:59.003Z,11.80
2022-08-31T06:06:52.102Z,17.20
2022-08-31T06:09:46.947Z,14.57
2022-08-31T06:12:43.019Z,14.40
2022-08-31T06:15:35.523Z,13.87
2022-08-31T06:18:34.740Z,14.63
2022-08-31T06:21:29.235Z,12.83
2022-08-31T06:24:22.385Z,14.87
2022-08-31T06:27:14.852Z,14.73
2022-08-31T06:30:09.355Z,15.03
2022-08-31T06:33:02.323Z,15.43
2022-08-31T06:36:02.957Z,14.83
2022-08-31T06:39:07.205Z,17.13
2022-08-31T06:42:03.586Z,14.17
2022-08-31T06:45:02.330Z,12.30
2022-08-31T06:48:17.643Z,13.10
2022-08-31T06:51:11.425Z,19.77
2022-08-31T06:54:27.578Z,12.10
2022-08-31T06:57:37.819Z,15.43
2022-08-31T07:00:43.450Z,11.97
2022-08-31T07:03:50.507Z,15.87
2022-08-31T07:06:45.857Z,16.57
2022-08-31T07:09:38.009Z,15.80
2022-08-31T07:12:30.891Z,13.87
2022-08-31T07:15:23.652Z,14.70
2022-08-31T07:18:15.971Z,13.03
2022-08-31T07:21:13.851Z,13.47
2022-08-31T07:24:07.458Z,15.40
2022-08-31T07:27:04.570Z,15.70
2022-08-31T07:30:21.481Z,16.50
2022-08-31T07:33:17.016Z,13.30
2022-08-31T07:36:17.044Z,19.33
2022-08-31T07:39:43.022Z,14.33
2022-08-31T07:42:38.910Z,14.63
2022-08-31T07:45:35.853Z,13.50
2022-08-31T07:48:30.666Z,13.17
2022-08-31T07:51:37.107Z,14.03
2022-08-31T07:54:41.315Z,14.30
2022-08-31T07:57:47.494Z,15.80
2022-08-31T08:00:40.336Z,14.37
2022-08-31T08:03:33.166Z,15.30
2022-08-31T08:06:44.534Z,12.78
2022-08-31T08:09:42.499Z,15.17
2022-08-31T08:12:48.418Z,18.53
2022-08-31T08:15:52.660Z,13.40
2022-08-31T08:18:44.953Z,13.50
2022-08-31T08:21:40.263Z,13.70
2022-08-31T08:24:33.627Z,13.33
2022-08-31T08:27:49.272Z,12.67
2022-08-31T08:31:08.356Z,14.10
2022-08-31T08:34:01.488Z,14.07
2022-08-31T08:36:54.752Z,15.50
2022-08-31T08:39:48.166Z,13.67
2022-08-31T08:42:45.782Z,12.23
2022-08-31T08:45:39.282Z,13.67
2022-08-31T08:48:38.349Z,15.73
2022-08-31T08:51:38.165Z,14.75
2022-08-31T08:54:38.879Z,13.87
2022-08-31T08:57:35.149Z,12.33
2022-08-31T09:00:30.306Z,12.93
2022-08-31T09:03:44.794Z,11.73
2022-08-31T09:06:48.291Z,13.98
2022-08-31T09:09:57.737Z,14.03
2022-08-31T09:12:58.410Z,13.60
2022-08-31T09:16:05.605Z,17.67
2022-08-31T09:19:04.093Z,14.23
2022-08-31T09:21:58.390Z,17.77
2022-08-31T09:24:58.707Z,13.90
2022-08-31T09:28:15.529Z,13.27
2022-08-31T09:31:08.470Z,13.67
2022-08-31T09:34:01.239Z,13.07
2022-08-31T09:36:58.119Z,12.37
2022-08-31T09:39:53.808Z,12.07
2022-08-31T09:42:48.298Z,11.90
2022-08-31T09:45:50.916Z,11.57
2022-08-31T09:48:51.846Z,12.30
2022-08-31T09:51:44.758Z,10.53
2022-08-31T09:54:54.952Z,15.50
2022-08-31T09:58:03.573Z,12.70
2022-08-31T10:00:56.596Z,10.53
2022-08-31T10:03:50.042Z,12.07
2022-08-31T10:06:47.043Z,12.57
2022-08-31T10:09:47.513Z,11.53
2022-08-31T10:12:48.518Z,10.03
2022-08-31T10:15:44.957Z,14.00
2022-08-31T10:18:45.033Z,10.93
2022-08-31T10:21:52.491Z,11.00
2022-08-31T10:24:50.427Z,13.33
2022-08-31T10:27:49.663Z,13.83
2022-08-31T10:30:47.666Z,11.33
2022-08-31T10:34:08.310Z,12.90
2022-08-31T10:37:09.405Z,12.20
2022-08-31T10:40:08.621Z,10.63
2022-08-31T10:43:11.604Z,13.13
2022-08-31T10:46:06.258Z,13.40
2022-08-31T10:49:01.205Z,10.90
2022-08-31T10:52:03.511Z,10.67
2022-08-31T10:55:05.988Z,12.93
2022-08-31T10:58:10.513Z,10.80
2022-08-31T11:01:11.437Z,14.07
2022-08-31T11:04:36.016Z,11.13
2022-08-31T11:07:37.182Z,12.13
2022-08-31T11:10:48.890Z,12.37
2022-08-31T11:14:04.474Z,13.63
2022-08-31T11:17:22.308Z,13.53
2022-08-31T11:20:25.004Z,13.47
2022-08-31T11:23:44.930Z,11.43
2022-08-31T11:26:59.028Z,11.57
2022-08-31T11:29:58.403Z,11.40
2022-08-31T11:32:57.136Z,9.53
2022-08-31T11:36:09.173Z,12.03
2022-08-31T11:39:36.246Z,14.30
2022-08-31T11:43:01.541Z,12.63
2022-08-31T11:45:54.707Z,9.47
2022-08-31T11:49:11.032Z,10.77
2022-08-31T11:52:05.763Z,14.07
2022-08-31T11:55:10.678Z,12.87
2022-08-31T11:58:27.467Z,11.67
2022-08-31T12:01:39.637Z,11.63
2022-08-31T12:05:02.982Z,12.83
2022-08-31T12:07:55.351Z,10.27
2022-08-31T12:10:59.471Z,10.67
2022-08-31T12:14:01.585Z,11.47
2022-08-31T12:17:10.007Z,10.73
2022-08-31T12:20:12.541Z,10.43
2022-08-31T12:23:39.506Z,10.97
2022-08-31T12:26:53.866Z,11.17
2022-08-31T12:29:47.021Z,13.13
2022-08-31T12:32:42.781Z,12.73
2022-08-31T12:35:36.668Z,11.17
2022-08-31T12:38:30.691Z,10.30
2022-08-31T12:41:25.542Z,11.27
2022-08-31T12:44:24.047Z,11.37
2022-08-31T12:47:29.036Z,11.33
2022-08-31T12:50:27.636Z,9.03
2022-08-31T12:53:47.508Z,11.33
2022-08-31T12:56:49.988Z,10.23
2022-08-31T13:00:00.688Z,8.90
2022-08-31T13:02:58.839Z,10.90
2022-08-31T13:06:08.520Z,13.67
2022-08-31T13:09:01.623Z,9.87
2022-08-31T13:11:57.202Z,10.53
2022-08-31T13:14:48.875Z,10.27
2022-08-31T13:17:41.900Z,8.70
2022-08-31T13:20:44.429Z,11.07
2022-08-31T13:23:39.463Z,11.70
2022-08-31T13:26:31.699Z,10.23
2022-08-31T13:29:26.697Z,11.20
2022-08-31T13:32:33.566Z,11.40
2022-08-31T13:35:37.548Z,12.90
2022-08-31T13:38:42.595Z,10.47
2022-08-31T13:41:39.150Z,12.30
2022-08-31T13:44:39.494Z,11.83
2022-08-31T13:47:47.590Z,9.13
2022-08-31T13:50:52.865Z,12.23
2022-08-31T13:53:48.656Z,9.57
2022-08-31T13:56:59.601Z,9.67
2022-08-31T14:02:43.372Z,10.32
2022-08-31T14:05:37.773Z,8.93
2022-08-31T14:08:30.533Z,9.50
2022-08-31T14:11:27.333Z,10.10
2022-08-31T14:14:25.397Z,9.43
2022-08-31T14:17:18.696Z,14.20
2022-08-31T14:20:53.358Z,12.90
2022-08-31T14:24:01.789Z,13.00
2022-08-31T14:26:54.511Z,10.57
2022-08-31T14:29:46.749Z,13.30
2022-08-31T14:32:39.552Z,9.63
2022-08-31T14:35:32.403Z,11.47
2022-08-31T14:38:25.611Z,10.30
2022-08-31T14:41:20.565Z,10.95
2022-08-31T14:44:14.392Z,14.10
2022-08-31T14:47:08.558Z,11.27
2022-08-31T14:50:05.956Z,10.23
2022-08-31T14:53:01.391Z,12.37
2022-08-31T14:55:53.629Z,13.07
2022-08-31T14:58:50.167Z,13.40
2022-08-31T15:01:45.112Z,21.13
2022-08-31T15:04:42.224Z,14.23
2022-08-31T15:07:41.870Z,15.13
2022-08-31T15:10:34.244Z,13.20
2022-08-31T15:13:34.290Z,14.13
2022-08-31T15:16:28.050Z,11.63
2022-08-31T15:19:23.476Z,15.17
2022-08-31T15:22:16.200Z,11.10
2022-08-31T15:25:12.733Z,11.57
2022-08-31T15:28:05.772Z,10.10
2022-08-31T15:30:58.292Z,14.13
2022-08-31T15:33:51.825Z,14.43
2022-08-31T15:36:44.139Z,10.60
2022-08-31T15:39:38.738Z,14.57
2022-08-31T15:42:31.590Z,11.57
2022-08-31T15:45:25.965Z,11.23
2022-08-31T15:48:48.648Z,12.20
2022-08-31T15:51:50.350Z,12.80
2022-08-31T15:54:43.822Z,10.40
2022-08-31T15:57:36.425Z,13.97
2022-08-31T16:00:32.953Z,13.00
2022-08-31T16:03:25.492Z,16.30
2022-08-31T16:06:17.769Z,16.13
2022-08-31T16:09:10.894Z,16.87
2022-08-31T16:12:04.097Z,16.97
2022-08-31T16:14:56.719Z,12.13
2022-08-31T16:17:50.147Z,16.23
2022-08-31T16:20:48.287Z,9.57
2022-08-31T16:23:40.743Z,15.03
2022-08-31T16:26:35.278Z,14.20
2022-08-31T16:29:30.072Z,13.80
2022-08-31T16:32:22.110Z,12.40
2022-08-31T16:35:16.311Z,12.80
2022-08-31T16:38:08.917Z,13.90
2022-08-31T16:41:03.827Z,14.20
2022-08-31T16:44:18.111Z,16.93
2022-08-31T16:47:10.007Z,11.53
2022-08-31T16:50:03.994Z,10.73
2022-08-31T16:52:57.542Z,10.43
2022-08-31T16:55:50.331Z,10.77
2022-08-31T16:58:51.636Z,25.53
2022-08-31T17:01:46.826Z,42.90
2022-08-31T17:04:55.252Z,29.37
2022-08-31T17:07:47.552Z,37.90
2022-08-31T17:10:39.646Z,40.40
2022-08-31T17:13:33.666Z,22.30
2022-08-31T17:16:27.278Z,16.27
2022-08-31T17:19:24.385Z,14.10
2022-08-31T17:22:25.530Z,13.23
2022-08-31T17:25:20.247Z,13.33
2022-08-31T17:28:13.384Z,11.47
2022-08-31T17:31:05.695Z,12.77
2022-08-31T17:33:58.377Z,13.40
2022-08-31T17:36:52.495Z,10.97
2022-08-31T17:39:46.039Z,14.20
2022-08-31T17:42:38.263Z,14.50
2022-08-31T17:45:30.510Z,17.67
2022-08-31T17:48:24.069Z,14.73
2022-08-31T17:51:26.710Z,11.47
2022-08-31T17:54:21.020Z,15.58
2022-08-31T17:57:14.577Z,11.60
2022-08-31T18:00:09.289Z,17.27
2022-08-31T18:03:01.941Z,10.10
2022-08-31T18:05:54.964Z,10.60
2022-08-31T18:08:47.817Z,11.33
2022-08-31T18:11:43.456Z,8.63
2022-08-31T18:14:40.083Z,9.67
2022-08-31T18:17:31.888Z,10.90
2022-08-31T18:20:24.502Z,13.00
2022-08-31T18:23:16.616Z,8.70
2022-08-31T18:26:19.555Z,9.53
2022-08-31T18:29:17.015Z,11.30
2022-08-31T18:32:11.524Z,10.73
2022-08-31T18:35:03.759Z,15.07
2022-08-31T18:37:56.435Z,13.80
2022-08-31T18:41:02.866Z,8.70
2022-08-31T18:44:13.531Z,9.57
2022-08-31T18:47:09.177Z,12.00
2022-08-31T18:50:03.809Z,11.37
2022-08-31T18:52:55.976Z,11.80
2022-08-31T18:55:48.830Z,11.27
2022-08-31T18:58:41.791Z,12.70
2022-08-31T19:01:34.322Z,11.87
2022-08-31T19:04:26.421Z,10.20
2022-08-31T19:07:19.348Z,12.87
2022-08-31T19:10:14.419Z,11.60
2022-08-31T19:13:15.442Z,13.97
2022-08-31T19:16:15.495Z,13.90
2022-08-31T19:19:09.865Z,13.13
2022-08-31T19:22:02.308Z,11.63
2022-08-31T19:24:54.339Z,12.83
2022-08-31T19:27:51.533Z,12.37
2022-08-31T19:30:48.816Z,17.90
2022-08-31T19:33:42.076Z,15.05
2022-08-31T19:36:38.023Z,13.97
2022-08-31T19:39:37.338Z,14.10
2022-08-31T19:45:44.970Z,12.93
2022-08-31T19:48:43.849Z,12.97
2022-08-31T19:51:36.939Z,13.47
2022-08-31T19:54:32.827Z,12.47
2022-08-31T19:57:24.482Z,14.50
2022-08-31T20:03:11.249Z,14.03
2022-08-31T20:06:08.009Z,13.50
2022-08-31T20:09:00.660Z,18.60
2022-08-31T20:11:53.443Z,15.13
2022-08-31T20:14:45.950Z,16.23
2022-08-31T20:17:41.988Z,13.60
2022-08-31T20:20:40.256Z,13.50
2022-08-31T20:23:32.477Z,14.37
2022-08-31T20:26:33.280Z,14.93
2022-08-31T20:29:29.592Z,12.77
2022-08-31T20:32:26.155Z,20.97
2022-08-31T20:35:19.258Z,14.43
2022-08-31T20:38:14.677Z,18.07
2022-08-31T20:41:07.531Z,12.27
2022-08-31T20:44:05.090Z,13.23
2022-08-31T20:47:16.986Z,15.00
2022-08-31T20:50:15.409Z,13.72
2022-08-31T20:53:09.116Z,14.47
2022-08-31T20:56:01.326Z,12.10
2022-08-31T20:58:53.354Z,11.60
2022-08-31T21:01:45.361Z,12.57
2022-08-31T21:04:40.886Z,13.17
2022-08-31T21:07:32.890Z,13.17
2022-08-31T21:10:36.648Z,12.27
2022-08-31T21:13:30.877Z,12.20
2022-08-31T21:16:26.363Z,13.40
2022-08-31T21:19:22.466Z,11.20
2022-08-31T21:22:17.708Z,11.53
2022-08-31T21:25:13.049Z,11.10
2022-08-31T21:28:07.508Z,19.17
2022-08-31T21:31:15.665Z,13.43
2022-08-31T21:34:12.135Z,13.63
2022-08-31T21:37:04.962Z,11.57
2022-08-31T21:39:58.124Z,11.23
2022-08-31T21:42:50.432Z,14.27
2022-08-31T21:45:42.698Z,14.03
2022-08-31T21:48:37.046Z,12.83
2022-08-31T21:51:31.898Z,13.23
2022-08-31T21:54:27.398Z,13.27
2022-08-31T21:57:21.379Z,13.93
2022-08-31T22:00:22.089Z,12.80
2022-08-31T22:03:16.372Z,10.88
2022-08-31T22:06:12.320Z,12.70
2022-08-31T22:09:07.944Z,11.60
2022-08-31T22:12:07.705Z,12.87
2022-08-31T22:14:59.943Z,14.87
2022-08-31T22:18:25.863Z,16.03
2022-08-31T22:21:05.912Z,11.90
2022-08-31T22:24:02.642Z,14.03
2022-08-31T22:26:57.252Z,11.10
2022-08-31T22:29:49.290Z,13.07
2022-08-31T22:32:41.355Z,11.30
2022-08-31T22:35:39.002Z,11.17
2022-08-31T22:38:31.344Z,13.20
2022-08-31T22:41:24.294Z,13.40
2022-08-31T22:44:19.814Z,14.20
2022-08-31T22:47:12.525Z,13.30
2022-08-31T22:50:04.767Z,16.90
2022-08-31T22:52:57.002Z,22.13
2022-08-31T22:55:49.252Z,23.03
2022-08-31T22:58:42.299Z,17.33
2022-08-31T23:01:37.763Z,13.13
2022-08-31T23:04:31.143Z,12.13
2022-08-31T23:07:24.649Z,20.67
2022-08-31T23:10:19.460Z,33.40
2022-08-31T23:13:11.085Z,19.50
2022-08-31T23:18:55.541Z,13.00
2022-08-31T23:21:56.426Z,12.37
2022-08-31T23:24:51.972Z,10.90
2022-08-31T23:27:44.146Z,13.53
2022-08-31T23:30:38.329Z,12.67
2022-08-31T23:33:31.223Z,11.53
2022-08-31T23:36:26.304Z,11.37
2022-08-31T23:39:20.035Z,12.60
2022-08-31T23:42:13.815Z,13.23
2022-08-31T23:45:07.737Z,13.50
2022-08-31T23:47:59.219Z,12.27
2022-08-31T23:50:52.266Z,14.15
2022-08-31T23:53:46.043Z,12.70
2022-08-31T23:56:41.172Z,14.87
2022-08-31T23:59:36.724Z,12.60
